createdAt,value
2022-11-19T00:01:08.687Z,14.40
2022-11-19T00:03:36.821Z,14.65
2022-11-19T00:06:05.831Z,15.70
2022-11-19T00:08:33.229Z,14.68
2022-11-19T00:11:09.298Z,13.38
2022-11-19T00:13:36.899Z,12.70
2022-11-19T00:16:05.757Z,15.13
2022-11-19T00:18:33.125Z,13.18
2022-11-19T00:21:10.659Z,18.10
2022-11-19T00:23:37.972Z,14.73
2022-11-19T00:26:06.062Z,17.83
2022-11-19T00:28:33.237Z,12.77
2022-11-19T00:31:08.140Z,15.02
2022-11-19T00:33:35.628Z,11.85
2022-11-19T00:36:03.155Z,13.30
2022-11-19T00:38:30.968Z,13.00
2022-11-19T00:40:58.305Z,15.57
2022-11-19T00:43:44.676Z,12.93
2022-11-19T00:46:11.996Z,13.27
2022-11-19T00:48:41.861Z,13.82
2022-11-19T00:51:09.566Z,15.50
2022-11-19T00:53:36.951Z,16.90
2022-11-19T00:56:05.124Z,14.80
2022-11-19T00:58:32.358Z,16.00
2022-11-19T01:00:59.481Z,14.90
2022-11-19T01:03:26.664Z,12.82
2022-11-19T01:05:53.736Z,12.30
2022-11-19T01:08:20.875Z,16.33
2022-11-19T01:10:48.098Z,15.02
2022-11-19T01:13:34.197Z,11.05
2022-11-19T01:16:01.585Z,12.55
2022-11-19T01:18:29.269Z,12.05
2022-11-19T01:20:56.474Z,13.27
2022-11-19T01:23:23.606Z,13.07
2022-11-19T01:25:50.678Z,13.00
2022-11-19T01:28:17.882Z,11.38
2022-11-19T01:30:44.934Z,13.25
2022-11-19T01:33:12.020Z,11.43
2022-11-19T01:35:39.215Z,10.23
2022-11-19T01:38:06.934Z,11.90
2022-11-19T01:40:34.444Z,14.30
2022-11-19T01:43:01.533Z,11.57
2022-11-19T01:45:34.091Z,12.27
2022-11-19T01:48:10.554Z,12.63
2022-11-19T01:50:39.938Z,10.98
2022-11-19T01:53:09.486Z,12.77
2022-11-19T01:55:37.662Z,8.88
2022-11-19T01:58:05.708Z,8.18
2022-11-19T02:00:32.794Z,7.90
2022-11-19T02:02:59.965Z,10.10
2022-11-19T02:05:27.208Z,8.57
2022-11-19T02:07:55.844Z,8.35
2022-11-19T02:10:30.624Z,9.35
2022-11-19T02:13:03.251Z,7.75
2022-11-19T02:15:34.561Z,7.57
2022-11-19T02:18:04.593Z,6.10
2022-11-19T02:21:01.309Z,8.68
2022-11-19T02:23:28.542Z,6.75
2022-11-19T02:26:14.656Z,9.48
2022-11-19T02:28:41.706Z,7.40
2022-11-19T02:31:14.797Z,6.18
2022-11-19T02:33:55.848Z,8.20
2022-11-19T02:36:26.404Z,7.13
2022-11-19T02:38:59.092Z,6.93
2022-11-19T02:41:35.092Z,6.68
2022-11-19T02:44:35.528Z,6.00
2022-11-19T02:47:04.868Z,6.97
2022-11-19T02:49:33.773Z,7.78
2022-11-19T02:52:01.637Z,9.63
2022-11-19T02:54:29.187Z,6.38
2022-11-19T02:56:58.895Z,8.32
2022-11-19T02:59:47.359Z,6.55
2022-11-19T03:02:33.979Z,5.50
2022-11-19T03:05:01.420Z,7.28
2022-11-19T03:07:28.729Z,6.25
2022-11-19T03:09:56.938Z,7.28
2022-11-19T03:12:37.544Z,8.07
2022-11-19T03:15:38.471Z,7.63
2022-11-19T03:18:07.745Z,7.78
2022-11-19T03:20:39.937Z,8.63
2022-11-19T03:23:11.565Z,7.47
2022-11-19T03:25:50.789Z,5.00
2022-11-19T03:28:21.250Z,5.60
2022-11-19T03:30:48.928Z,5.22
2022-11-19T03:33:19.353Z,5.90
2022-11-19T03:35:49.436Z,5.63
2022-11-19T03:38:19.466Z,8.15
2022-11-19T03:40:47.711Z,7.97
2022-11-19T03:43:17.467Z,7.82
2022-11-19T03:45:46.044Z,8.82
2022-11-19T03:48:14.261Z,6.13
2022-11-19T03:50:53.706Z,4.90
2022-11-19T03:53:24.915Z,6.97
2022-11-19T03:56:00.368Z,6.13
2022-11-19T03:58:29.561Z,7.05
2022-11-19T04:00:56.738Z,6.13
2022-11-19T04:03:23.866Z,8.27
2022-11-19T04:05:50.936Z,10.45
2022-11-19T04:08:18.095Z,8.65
2022-11-19T04:10:45.166Z,11.55
2022-11-19T04:13:12.320Z,8.82
2022-11-19T04:15:39.662Z,8.05
2022-11-19T04:18:06.835Z,8.00
2022-11-19T04:20:33.992Z,8.13
2022-11-19T04:23:01.120Z,7.47
2022-11-19T04:25:28.185Z,7.50
2022-11-19T04:27:55.245Z,10.18
2022-11-19T04:30:22.402Z,10.55
2022-11-19T04:32:49.461Z,7.90
2022-11-19T04:35:21.399Z,7.43
2022-11-19T04:37:49.193Z,9.48
2022-11-19T04:40:16.433Z,9.48
2022-11-19T04:42:43.915Z,8.52
2022-11-19T04:45:11.553Z,9.90
2022-11-19T04:47:38.709Z,7.97
2022-11-19T04:50:06.093Z,7.75
2022-11-19T04:52:37.683Z,8.52
2022-11-19T04:55:07.573Z,8.38
2022-11-19T04:57:34.710Z,8.88
2022-11-19T05:00:01.839Z,9.48
2022-11-19T05:02:29.056Z,7.18
2022-11-19T05:04:56.175Z,7.78
2022-11-19T05:07:23.423Z,8.95
2022-11-19T05:09:50.685Z,9.80
2022-11-19T05:12:17.842Z,9.90
2022-11-19T05:14:45.592Z,7.20
2022-11-19T05:17:12.670Z,7.45
2022-11-19T05:19:39.816Z,8.13
2022-11-19T05:22:07.286Z,7.25
2022-11-19T05:24:34.645Z,7.18
2022-11-19T05:27:01.731Z,9.23
2022-11-19T05:29:28.810Z,9.05
2022-11-19T05:31:55.885Z,8.05
2022-11-19T05:34:23.089Z,8.35
2022-11-19T05:36:50.222Z,6.78
2022-11-19T05:39:21.856Z,7.88
2022-11-19T05:44:16.604Z,7.85
2022-11-19T05:46:43.700Z,11.43
2022-11-19T05:49:11.426Z,6.45
2022-11-19T05:51:38.617Z,6.15
2022-11-19T05:54:05.750Z,13.98
2022-11-19T05:56:33.276Z,7.75
2022-11-19T05:59:00.376Z,10.45
2022-11-19T06:01:28.309Z,7.53
2022-11-19T06:03:55.567Z,8.57
2022-11-19T06:06:22.810Z,6.63
2022-11-19T06:08:50.705Z,6.53
2022-11-19T06:11:36.623Z,9.77
2022-11-19T06:14:03.785Z,8.10
2022-11-19T06:16:30.919Z,10.10
2022-11-19T06:18:57.981Z,10.18
2022-11-19T06:21:25.106Z,9.80
2022-11-19T06:23:52.212Z,9.57
2022-11-19T06:26:26.286Z,10.88
2022-11-19T06:28:53.396Z,11.18
2022-11-19T06:31:20.537Z,12.57
2022-11-19T06:33:48.000Z,11.85
2022-11-19T06:36:15.308Z,9.68
2022-11-19T06:38:42.386Z,9.95
2022-11-19T06:41:09.492Z,13.43
2022-11-19T06:43:36.543Z,13.10
2022-11-19T06:46:03.694Z,12.77
2022-11-19T06:48:30.747Z,11.73
2022-11-19T06:50:58.183Z,11.57
2022-11-19T06:53:25.296Z,9.23
2022-11-19T06:55:59.166Z,10.63
2022-11-19T06:58:26.330Z,8.45
2022-11-19T07:00:53.439Z,12.32
2022-11-19T07:03:20.771Z,14.27
2022-11-19T07:05:48.467Z,11.30
2022-11-19T07:08:15.721Z,10.75
2022-11-19T07:10:42.834Z,11.02
2022-11-19T07:13:09.943Z,11.43
2022-11-19T07:15:37.096Z,12.93
2022-11-19T07:18:04.249Z,9.27
2022-11-19T07:20:31.411Z,10.50
2022-11-19T07:22:59.472Z,8.70
2022-11-19T07:25:26.888Z,10.48
2022-11-19T07:27:54.017Z,14.82
2022-11-19T07:30:21.088Z,11.63
2022-11-19T07:32:48.158Z,13.10
2022-11-19T07:35:15.299Z,9.85
2022-11-19T07:37:42.354Z,12.57
2022-11-19T07:40:11.217Z,10.18
2022-11-19T07:42:50.476Z,9.48
2022-11-19T07:45:18.723Z,10.25
2022-11-19T07:47:45.891Z,14.40
2022-11-19T07:50:13.086Z,12.48
2022-11-19T07:52:40.290Z,13.98
2022-11-19T07:55:07.688Z,11.88
2022-11-19T07:57:34.852Z,12.50
2022-11-19T08:00:02.587Z,12.95
2022-11-19T08:02:29.697Z,12.90
2022-11-19T08:04:56.743Z,10.10
2022-11-19T08:07:23.919Z,11.98
2022-11-19T08:09:51.074Z,12.50
2022-11-19T08:12:21.137Z,10.50
2022-11-19T08:14:48.252Z,11.20
2022-11-19T08:17:34.308Z,11.82
2022-11-19T08:20:01.764Z,11.48
2022-11-19T08:22:29.832Z,12.07
2022-11-19T08:24:56.899Z,11.10
2022-11-19T08:27:24.021Z,11.25
2022-11-19T08:29:51.093Z,11.43
2022-11-19T08:32:18.228Z,11.63
2022-11-19T08:34:45.457Z,10.75
2022-11-19T08:37:13.586Z,9.60
2022-11-19T08:39:40.921Z,9.60
2022-11-19T08:42:28.135Z,9.32
2022-11-19T08:44:55.791Z,11.43
2022-11-19T08:47:22.854Z,10.93
2022-11-19T08:49:49.964Z,11.15
2022-11-19T08:52:17.021Z,10.55
2022-11-19T08:54:44.080Z,9.48
2022-11-19T08:57:11.270Z,7.45
2022-11-19T08:59:38.371Z,7.80
2022-11-19T09:02:05.425Z,8.93
2022-11-19T09:04:32.659Z,10.13
2022-11-19T09:06:59.894Z,9.05
2022-11-19T09:09:26.980Z,8.10
2022-11-19T09:11:55.664Z,8.07
2022-11-19T09:14:22.954Z,9.75
2022-11-19T09:16:50.192Z,13.40
2022-11-19T09:19:17.282Z,7.65
2022-11-19T09:21:44.529Z,9.68
2022-11-19T09:24:11.657Z,8.70
2022-11-19T09:26:38.775Z,8.00
2022-11-19T09:29:05.888Z,7.75
2022-11-19T09:31:33.416Z,8.52
2022-11-19T09:34:00.486Z,9.15
2022-11-19T09:36:27.877Z,8.98
2022-11-19T09:38:58.459Z,7.00
2022-11-19T09:41:44.757Z,7.93
2022-11-19T09:44:30.659Z,6.40
2022-11-19T09:46:57.824Z,6.30
2022-11-19T09:49:29.275Z,7.30
2022-11-19T09:52:04.396Z,6.50
2022-11-19T09:54:32.301Z,7.47
2022-11-19T09:57:04.340Z,6.15
2022-11-19T09:59:36.917Z,6.18
2022-11-19T10:02:13.600Z,7.80
2022-11-19T10:04:40.797Z,7.30
2022-11-19T10:07:21.243Z,5.55
2022-11-19T10:09:55.921Z,6.20
2022-11-19T10:12:41.940Z,6.30
2022-11-19T10:15:16.960Z,7.32
2022-11-19T10:17:49.530Z,7.07
2022-11-19T10:20:35.615Z,5.43
2022-11-19T10:23:06.145Z,7.72
2022-11-19T10:25:36.807Z,8.30
2022-11-19T10:28:13.772Z,5.22
2022-11-19T10:30:41.946Z,6.30
2022-11-19T10:33:14.514Z,9.40
2022-11-19T10:35:44.249Z,7.07
2022-11-19T10:38:19.527Z,7.70
2022-11-19T10:40:50.401Z,7.07
2022-11-19T10:43:23.558Z,6.20
2022-11-19T10:45:51.266Z,6.25
2022-11-19T10:48:23.846Z,7.88
2022-11-19T10:50:51.719Z,7.13
2022-11-19T10:53:21.337Z,6.50
2022-11-19T10:55:54.743Z,7.60
2022-11-19T10:58:30.792Z,6.93
2022-11-19T11:00:59.722Z,6.38
2022-11-19T11:03:33.806Z,7.13
2022-11-19T11:06:03.240Z,4.82
2022-11-19T11:08:30.328Z,5.45
2022-11-19T11:10:58.038Z,4.18
2022-11-19T11:14:09.797Z,5.18
2022-11-19T11:16:47.541Z,5.93
2022-11-19T11:19:19.331Z,6.80
2022-11-19T11:24:14.771Z,7.55
2022-11-19T11:26:41.986Z,7.32
2022-11-19T11:29:15.088Z,5.22
2022-11-19T11:31:45.918Z,6.03
2022-11-19T11:34:28.716Z,5.03
2022-11-19T11:36:56.732Z,7.35
2022-11-19T11:39:35.113Z,6.97
2022-11-19T11:42:05.757Z,4.82
2022-11-19T11:44:34.046Z,4.60
2022-11-19T11:47:11.091Z,5.43
2022-11-19T11:49:40.573Z,4.63
2022-11-19T11:52:08.262Z,5.78
2022-11-19T11:54:35.758Z,6.38
2022-11-19T11:57:29.084Z,5.82
2022-11-19T11:59:56.553Z,5.63
2022-11-19T12:02:32.442Z,6.35
2022-11-19T12:05:02.122Z,5.63
2022-11-19T12:07:37.624Z,6.82
2022-11-19T12:10:11.131Z,5.05
2022-11-19T12:12:42.411Z,9.70
2022-11-19T12:15:15.367Z,5.72
2022-11-19T12:17:42.485Z,5.22
2022-11-19T12:20:26.175Z,4.57
2022-11-19T12:22:59.201Z,5.65
2022-11-19T12:25:46.148Z,7.25
2022-11-19T12:28:32.470Z,5.05
2022-11-19T12:31:02.505Z,5.60
2022-11-19T12:33:49.861Z,6.95
2022-11-19T12:36:23.616Z,3.53
2022-11-19T12:38:59.548Z,5.03
2022-11-19T12:41:26.638Z,7.03
2022-11-19T12:43:58.868Z,4.57
2022-11-19T12:46:25.959Z,5.50
2022-11-19T12:49:13.271Z,6.30
2022-11-19T12:51:55.699Z,5.15
2022-11-19T12:54:35.182Z,6.03
2022-11-19T12:57:18.964Z,4.57
2022-11-19T12:59:54.282Z,4.47
2022-11-19T13:02:33.005Z,5.53
2022-11-19T13:05:02.852Z,5.25
2022-11-19T13:07:33.083Z,4.72
2022-11-19T13:10:03.865Z,5.03
2022-11-19T13:12:50.002Z,5.05
2022-11-19T13:15:23.397Z,6.43
2022-11-19T13:17:55.356Z,4.55
2022-11-19T13:20:32.230Z,7.60
2022-11-19T13:23:02.334Z,5.38
2022-11-19T13:25:36.879Z,4.53
2022-11-19T13:28:06.001Z,4.68
2022-11-19T13:30:34.727Z,4.28
2022-11-19T13:33:13.694Z,6.63
2022-11-19T13:35:46.578Z,6.22
2022-11-19T13:38:21.807Z,5.72
2022-11-19T13:40:54.692Z,4.28
2022-11-19T13:43:41.607Z,5.53
2022-11-19T13:46:11.855Z,5.22
2022-11-19T13:48:44.428Z,5.45
2022-11-19T13:51:23.207Z,8.60
2022-11-19T13:53:50.343Z,5.63
2022-11-19T13:56:18.012Z,6.13
2022-11-19T13:58:47.150Z,6.75
2022-11-19T14:01:33.094Z,5.22
2022-11-19T14:04:10.326Z,6.43
2022-11-19T14:06:58.267Z,4.22
2022-11-19T14:09:29.451Z,5.40
2022-11-19T14:11:57.091Z,4.43
2022-11-19T14:14:52.214Z,5.47
2022-11-19T14:17:38.301Z,5.20
2022-11-19T14:20:44.106Z,5.35
2022-11-19T14:23:30.192Z,5.18
2022-11-19T14:26:16.288Z,6.07
2022-11-19T14:28:51.203Z,6.72
2022-11-19T14:31:19.557Z,5.57
2022-11-19T14:33:49.677Z,4.78
2022-11-19T14:36:21.475Z,5.32
2022-11-19T14:38:50.478Z,6.80
2022-11-19T14:41:27.804Z,5.28
2022-11-19T14:44:10.221Z,4.50
2022-11-19T14:46:38.987Z,4.93
2022-11-19T14:49:07.309Z,6.80
2022-11-19T14:51:36.235Z,7.43
2022-11-19T14:54:08.539Z,6.60
2022-11-19T14:56:38.291Z,6.15
2022-11-19T14:59:22.566Z,6.75
2022-11-19T15:01:49.645Z,6.53
2022-11-19T15:04:16.867Z,7.60
2022-11-19T15:06:45.772Z,6.50
2022-11-19T15:09:12.923Z,8.32
2022-11-19T15:12:00.278Z,11.27
2022-11-19T15:14:31.702Z,8.32
2022-11-19T15:17:04.392Z,7.05
2022-11-19T15:19:44.122Z,7.88
2022-11-19T15:22:23.635Z,9.43
2022-11-19T15:25:15.070Z,6.82
2022-11-19T15:27:48.320Z,8.00
2022-11-19T15:30:18.359Z,7.45
2022-11-19T15:33:10.206Z,11.35
2022-11-19T15:35:56.343Z,9.15
2022-11-19T15:38:23.420Z,9.90
2022-11-19T15:40:52.016Z,10.15
2022-11-19T15:43:25.571Z,9.90
2022-11-19T15:45:57.558Z,6.85
2022-11-19T15:48:31.863Z,8.30
2022-11-19T15:50:59.325Z,10.25
2022-11-19T15:53:28.124Z,9.18
2022-11-19T15:55:55.281Z,8.05
2022-11-19T15:58:26.305Z,7.68
2022-11-19T16:00:53.957Z,12.07
2022-11-19T16:03:22.024Z,8.88
2022-11-19T16:06:00.229Z,7.28
2022-11-19T16:08:28.129Z,9.10
2022-11-19T16:11:20.294Z,7.63
2022-11-19T16:14:13.414Z,8.95
2022-11-19T16:16:59.464Z,7.57
2022-11-19T16:19:26.544Z,10.32
2022-11-19T16:21:55.861Z,8.38
2022-11-19T16:24:43.488Z,10.32
2022-11-19T16:27:13.055Z,11.60
2022-11-19T16:29:41.694Z,9.48
2022-11-19T16:32:09.081Z,8.35
2022-11-19T16:34:37.082Z,9.27
2022-11-19T16:37:04.408Z,8.48
2022-11-19T16:39:32.271Z,7.82
2022-11-19T16:42:18.015Z,9.40
2022-11-19T16:44:49.367Z,8.32
2022-11-19T16:47:26.539Z,11.30
2022-11-19T16:49:54.013Z,13.65
2022-11-19T16:52:37.130Z,16.83
2022-11-19T16:55:24.304Z,18.95
2022-11-19T16:57:52.819Z,17.55
2022-11-19T17:00:21.366Z,22.75
2022-11-19T17:02:49.082Z,20.40
2022-11-19T17:05:20.356Z,15.15
2022-11-19T17:07:48.635Z,16.45
2022-11-19T17:10:31.593Z,17.23
2022-11-19T17:13:04.038Z,21.45
2022-11-19T17:15:34.250Z,24.40
2022-11-19T17:18:10.544Z,30.20
2022-11-19T17:20:37.617Z,29.73
2022-11-19T17:23:25.413Z,30.63
2022-11-19T17:25:54.985Z,29.05
2022-11-19T17:28:26.119Z,21.80
2022-11-19T17:30:54.837Z,20.25
2022-11-19T17:33:23.292Z,21.15
2022-11-19T17:35:50.496Z,18.67
2022-11-19T17:38:19.251Z,19.38
2022-11-19T17:40:47.785Z,18.33
2022-11-19T17:43:34.256Z,16.10
2022-11-19T17:46:01.498Z,15.57
2022-11-19T17:48:28.782Z,18.63
2022-11-19T17:50:56.395Z,12.82
2022-11-19T17:53:23.900Z,16.45
2022-11-19T17:55:52.706Z,18.27
2022-11-19T17:58:19.874Z,16.90
2022-11-19T18:00:47.049Z,19.30
2022-11-19T18:03:14.658Z,16.35
2022-11-19T18:05:44.284Z,19.38
2022-11-19T18:08:11.418Z,13.32
2022-11-19T18:10:38.477Z,15.30
2022-11-19T18:13:06.049Z,13.25
2022-11-19T18:15:33.130Z,17.42
2022-11-19T18:18:00.183Z,13.07
2022-11-19T18:20:27.234Z,12.73
2022-11-19T18:22:54.389Z,15.02
2022-11-19T18:25:24.408Z,14.23
2022-11-19T18:27:51.460Z,15.60
2022-11-19T18:30:18.592Z,15.57
2022-11-19T18:32:45.910Z,14.45
2022-11-19T18:35:17.942Z,15.52
2022-11-19T18:40:12.736Z,12.18
2022-11-19T18:42:59.824Z,13.73
2022-11-19T18:45:27.445Z,13.40
2022-11-19T18:47:54.509Z,16.88
2022-11-19T18:50:25.434Z,16.50
2022-11-19T18:52:56.639Z,13.85
2022-11-19T18:55:23.892Z,19.98
2022-11-19T18:57:50.928Z,22.38
2022-11-19T19:00:18.280Z,17.98
2022-11-19T19:02:45.514Z,20.00
2022-11-19T19:05:12.959Z,19.30
2022-11-19T19:07:40.076Z,14.75
2022-11-19T19:10:08.644Z,16.52
2022-11-19T19:12:35.757Z,17.42
2022-11-19T19:15:03.436Z,24.70
2022-11-19T19:17:31.255Z,16.95
2022-11-19T19:19:58.438Z,15.10
2022-11-19T19:22:25.692Z,15.65
2022-11-19T19:24:57.935Z,14.75
2022-11-19T19:27:25.741Z,19.73
2022-11-19T19:29:52.837Z,11.65
2022-11-19T19:32:19.971Z,16.63
2022-11-19T19:34:47.250Z,16.85
2022-11-19T19:37:14.364Z,18.88
2022-11-19T19:39:41.521Z,20.75
2022-11-19T19:42:08.854Z,26.63
2022-11-19T19:44:36.883Z,19.67
2022-11-19T19:47:04.629Z,14.43
2022-11-19T19:49:37.329Z,15.48
2022-11-19T19:52:06.182Z,13.30
2022-11-19T19:54:33.404Z,14.13
2022-11-19T19:57:00.546Z,19.95
2022-11-19T19:59:27.639Z,26.33
2022-11-19T20:01:55.182Z,20.10
2022-11-19T20:04:22.400Z,27.08
2022-11-19T20:06:51.612Z,38.95
2022-11-19T20:09:18.778Z,29.02
2022-11-19T20:11:45.885Z,17.88
2022-11-19T20:14:13.135Z,15.45
2022-11-19T20:16:40.814Z,14.50
2022-11-19T20:19:08.937Z,14.38
2022-11-19T20:21:36.596Z,12.90
2022-11-19T20:24:11.450Z,11.43
2022-11-19T20:26:40.279Z,12.38
2022-11-19T20:29:08.958Z,9.90
2022-11-19T20:31:36.163Z,12.25
2022-11-19T20:34:04.550Z,13.73
2022-11-19T20:36:32.874Z,11.73
2022-11-19T20:39:00.058Z,12.77
2022-11-19T20:41:46.471Z,17.25
2022-11-19T20:44:20.700Z,12.95
2022-11-19T20:46:58.202Z,14.93
2022-11-19T20:49:29.433Z,12.07
2022-11-19T20:51:59.468Z,13.35
2022-11-19T20:54:27.295Z,13.75
2022-11-19T20:56:55.122Z,16.30
2022-11-19T20:59:23.032Z,9.38
2022-11-19T21:01:50.710Z,15.48
2022-11-19T21:04:18.483Z,16.40
2022-11-19T21:06:45.690Z,23.27
2022-11-19T21:09:12.748Z,17.33
2022-11-19T21:11:39.911Z,18.67
2022-11-19T21:14:07.179Z,16.38
2022-11-19T21:16:34.376Z,23.65
2022-11-19T21:19:02.056Z,18.65
2022-11-19T21:21:29.138Z,24.48
2022-11-19T21:23:59.178Z,28.02
2022-11-19T21:26:27.304Z,27.23
2022-11-19T21:28:56.418Z,26.17
2022-11-19T21:31:37.903Z,29.40
2022-11-19T21:34:06.266Z,25.58
2022-11-19T21:36:33.488Z,27.65
2022-11-19T21:39:00.934Z,27.95
2022-11-19T21:41:28.120Z,21.67
2022-11-19T21:43:55.436Z,23.77
2022-11-19T21:46:22.571Z,22.17
2022-11-19T21:48:49.637Z,26.65
2022-11-19T21:51:21.470Z,26.65
2022-11-19T21:53:51.406Z,24.48
2022-11-19T21:56:18.486Z,25.10
2022-11-19T21:58:45.486Z,22.30
2022-11-19T22:01:12.614Z,28.77
2022-11-19T22:03:39.893Z,29.52
2022-11-19T22:06:08.499Z,27.33
2022-11-19T22:08:37.346Z,28.77
2022-11-19T22:11:24.714Z,31.48
2022-11-19T22:13:52.385Z,26.50
2022-11-19T22:16:19.643Z,29.52
2022-11-19T22:18:46.954Z,26.00
2022-11-19T22:21:15.509Z,32.60
2022-11-19T22:23:42.653Z,27.45
2022-11-19T22:26:10.567Z,35.13
2022-11-19T22:28:40.820Z,28.85
2022-11-19T22:31:08.036Z,26.45
2022-11-19T22:33:36.836Z,26.50
2022-11-19T22:36:09.871Z,24.25
2022-11-19T22:38:37.877Z,23.25
2022-11-19T22:41:06.552Z,27.95
2022-11-19T22:43:34.221Z,24.65
2022-11-19T22:46:01.652Z,29.55
2022-11-19T22:48:29.326Z,31.40
2022-11-19T22:50:56.398Z,24.25
2022-11-19T22:53:23.828Z,26.80
2022-11-19T22:55:51.278Z,28.33
2022-11-19T22:58:18.433Z,23.55
2022-11-19T23:00:47.108Z,22.10
2022-11-19T23:03:14.641Z,26.30
2022-11-19T23:05:42.230Z,21.27
2022-11-19T23:08:13.408Z,27.10
2022-11-19T23:10:43.381Z,21.50
2022-11-19T23:13:30.596Z,25.13
2022-11-19T23:16:00.612Z,24.67
2022-11-19T23:18:28.413Z,23.33
2022-11-19T23:20:59.690Z,23.33
2022-11-19T23:23:26.800Z,27.83
2022-11-19T23:25:57.601Z,32.67
2022-11-19T23:28:25.601Z,26.33
2022-11-19T23:30:53.495Z,25.52
2022-11-19T23:33:21.145Z,28.23
2022-11-19T23:35:48.241Z,20.58
2022-11-19T23:38:15.609Z,19.58
2022-11-19T23:40:43.074Z,21.70
2022-11-19T23:43:10.091Z,23.00
2022-11-19T23:45:37.808Z,26.67
2022-11-19T23:48:05.062Z,23.08
2022-11-19T23:50:32.727Z,21.45
2022-11-19T23:52:59.818Z,24.08
2022-11-19T23:55:26.907Z,22.67
2022-11-19T23:57:54.342Z,22.23
